AirNav   Air Wisconsin Up To $57,000 Bonus
 
 1114 users online  

17SD Stone's Conservation Airport
Gary, South Dakota, USA

GOING TO GARY?


FAA INFORMATION EFFECTIVE 01 DECEMBER 2022

Location

FAA Identifier: 17SD
Lat/Long: 44-49-07.1100N 096-33-50.4600W
44-49.118500N 096-33.841000W
44.8186417,-96.5640167
(estimated)
Elevation: 1687 ft. / 514 m (estimated)
From city: 5 miles NW of GARY, SD
Time zone: UTC -6 (UTC -5 during Daylight Saving Time)
Zip code: 57237

Airport Operations

Airport use: Private use. Permission required prior to landing
Activation date: 11/2017
Control tower: no
ARTCC: MINNEAPOLIS CENTER
FSS: HURON FLIGHT SERVICE STATION
Attendance: 
Segmented circle: no

Airport Communications

WX AWOS-3 at CNB (14 nm SE): 118.575 (507-223-5293)
WX AWOS-3 at DXX (19 nm NE): 118.975 (320-598-3863)

Nearby radio navigation aids

VOR radial/distance  VOR name  Freq  Var
ATYr102/26.4WATERTOWN VORTAC116.6009E
MVEr251/37.4MONTEVIDEO VOR/DME111.6005E
MMLr300/38.6MARSHALL VOR/DME111.0005E

Airport Services

Runway Information

Runway 9/27

Dimensions: 1115 x 75 ft. / 340 x 23 m
Surface: turf, in fair condition
RUNWAY 9  RUNWAY 27
Traffic pattern: leftleft

Airport Ownership and Management from official FAA records

Ownership: Privately-owned
Owner: WILL STONE
18203 486TH AVE.
GARY, SD 57237
Phone 605-520-8836
Manager: WILL STONE
18203 486TH AVE
GARY, SD 57237
Phone 605-520-8836

Additional Remarks

FOR CD CTC MINNEAPOLIS ARTCC AT 651-463-5588.

Instrument Procedures

There are no published instrument procedures at 17SD.

Some nearby airports with instrument procedures:

KCNB - Myers Field Airport (14 nm SE)
KDXX - Lac Qui Parle County Airport (19 nm NE)
1D1 - Milbank Municipal Airport (25 nm N)
KATY - Watertown Regional Airport (26 nm W)
KVVV - Ortonville Municipal Airport/Martinson Field (30 nm N)
 
Loc | Ops | Rwys | IFR | FBO | Links
Com | Nav | Svcs | Stats | Notes

Bismarck Aero Center
AirBoss

 
Aerial photo
No photo
 
Airport distance calculator
Flying to Stone's Conservation Airport? Find the distance to fly.

From to 17SD

Sunrise and sunset
Times for 01-Dec-2022
 Local
(UTC-6)
 Zulu
(UTC)
Morning civil twilight07:1213:12
Sunrise07:4513:45
Sunset16:4622:46
Evening civil twilight17:1923:19

Current date and time
Zulu (UTC)  02-Dec-2022 01:58:17
Local (UTC-6)  01-Dec-2022 19:58:17
 
METAR
KCNB 
14nm SE 
020155Z AUTO 21007KT 130V250 10SM CLR 03/M03 A2970 RMK AO2 T00281026
KDXX 
20nm NE 
020155Z AUTO 13007KT 10SM CLR M01/M04 A2972 RMK AO2
KATY 
25nm W 
020153Z AUTO 17011G20KT 10SM CLR M01/M04 A2966 RMK AO2 SLP068 T10111044
TAF
KATY 
25nm W 
012212Z 0122/0218 18011KT P6SM SCT200 FM021000 19013G19KT P6SM BKN250 WS020/26035KT FM021300 28012G19KT P6SM BKN230 FM021600 28013G20KT P6SM BKN027 FM021700 31016G25KT P6SM OVC023
NOTAMs
Click for the latest NOTAMs
NOTAMs are issued by the DoD/FAA and will open in a separate window not controlled by AirNav.

 

 
 

Would you like to see your business listed on this page?

 If your business provides an interesting product or service to pilots, flight crews, aircraft, or users of the Stone's Conservation Airport, you should consider listing it here.  To start the listing process, click on the button below
 
Add a business
 

Other Pages about Stone's Conservation Airport

Update a link
 
Copyright © AirNav, LLC. All rights reserved. Privacy Policy  Contact